sensor_id;sensor_type;location;lat;lon;timestamp;P1;durP1;ratioP1;P2;durP2;ratioP2
67839;SDS011;54636;51.684;5.142;2023-07-31T00:00:03;32.55;;;9.80;;
67839;SDS011;54636;51.684;5.142;2023-07-31T00:02:29;27.35;;;8.07;;
67839;SDS011;54636;51.684;5.142;2023-07-31T00:04:54;29.25;;;9.60;;
67839;SDS011;54636;51.684;5.142;2023-07-31T00:07:20;31.10;;;9.23;;
67839;SDS011;54636;51.684;5.142;2023-07-31T00:09:45;23.17;;;8.45;;
67839;SDS011;54636;51.684;5.142;2023-07-31T00:12:10;27.17;;;8.25;;
67839;SDS011;54636;51.684;5.142;2023-07-31T00:14:36;29.17;;;8.48;;
67839;SDS011;54636;51.684;5.142;2023-07-31T00:17:01;20.88;;;6.78;;
67839;SDS011;54636;51.684;5.142;2023-07-31T00:19:26;23.67;;;8.05;;
67839;SDS011;54636;51.684;5.142;2023-07-31T00:21:52;23.40;;;7.15;;
67839;SDS011;54636;51.684;5.142;2023-07-31T00:24:17;22.05;;;7.38;;
67839;SDS011;54636;51.684;5.142;2023-07-31T00:26:43;24.83;;;7.97;;
67839;SDS011;54636;51.684;5.142;2023-07-31T00:29:08;23.33;;;6.97;;
67839;SDS011;54636;51.684;5.142;2023-07-31T00:31:33;26.00;;;7.43;;
67839;SDS011;54636;51.684;5.142;2023-07-31T00:33:59;22.85;;;6.20;;
67839;SDS011;54636;51.684;5.142;2023-07-31T00:36:24;26.80;;;7.65;;
67839;SDS011;54636;51.684;5.142;2023-07-31T00:38:50;19.38;;;7.25;;
67839;SDS011;54636;51.684;5.142;2023-07-31T00:41:15;24.73;;;7.57;;
67839;SDS011;54636;51.684;5.142;2023-07-31T00:43:40;24.33;;;7.75;;
67839;SDS011;54636;51.684;5.142;2023-07-31T00:46:06;23.42;;;7.75;;
67839;SDS011;54636;51.684;5.142;2023-07-31T00:48:32;19.10;;;7.53;;
67839;SDS011;54636;51.684;5.142;2023-07-31T00:50:58;19.70;;;6.65;;
67839;SDS011;54636;51.684;5.142;2023-07-31T00:53:26;22.63;;;7.63;;
67839;SDS011;54636;51.684;5.142;2023-07-31T00:55:52;23.17;;;6.22;;
67839;SDS011;54636;51.684;5.142;2023-07-31T00:58:18;17.02;;;6.85;;
67839;SDS011;54636;51.684;5.142;2023-07-31T01:00:43;22.50;;;7.28;;
67839;SDS011;54636;51.684;5.142;2023-07-31T01:03:09;16.00;;;6.15;;
67839;SDS011;54636;51.684;5.142;2023-07-31T01:08:23;23.85;;;8.27;;
67839;SDS011;54636;51.684;5.142;2023-07-31T01:11:00;25.40;;;8.07;;
67839;SDS011;54636;51.684;5.142;2023-07-31T01:13:32;15.20;;;6.00;;
67839;SDS011;54636;51.684;5.142;2023-07-31T01:15:58;18.67;;;6.65;;
67839;SDS011;54636;51.684;5.142;2023-07-31T01:18:24;19.25;;;6.50;;
67839;SDS011;54636;51.684;5.142;2023-07-31T01:20:57;17.02;;;6.60;;
67839;SDS011;54636;51.684;5.142;2023-07-31T01:23:51;24.92;;;6.97;;
67839;SDS011;54636;51.684;5.142;2023-07-31T01:26:23;20.05;;;6.63;;
67839;SDS011;54636;51.684;5.142;2023-07-31T01:31:25;25.05;;;7.10;;
67839;SDS011;54636;51.684;5.142;2023-07-31T01:33:52;19.27;;;6.55;;
67839;SDS011;54636;51.684;5.142;2023-07-31T01:36:19;23.35;;;6.03;;
67839;SDS011;54636;51.684;5.142;2023-07-31T01:38:45;17.23;;;6.18;;
67839;SDS011;54636;51.684;5.142;2023-07-31T01:41:10;18.58;;;6.18;;
67839;SDS011;54636;51.684;5.142;2023-07-31T01:43:35;25.65;;;7.32;;
67839;SDS011;54636;51.684;5.142;2023-07-31T01:46:01;21.55;;;6.47;;
67839;SDS011;54636;51.684;5.142;2023-07-31T01:48:26;24.55;;;6.85;;
67839;SDS011;54636;51.684;5.142;2023-07-31T01:50:52;23.60;;;7.45;;
67839;SDS011;54636;51.684;5.142;2023-07-31T01:53:17;19.35;;;6.50;;
67839;SDS011;54636;51.684;5.142;2023-07-31T01:55:42;18.42;;;6.15;;
67839;SDS011;54636;51.684;5.142;2023-07-31T01:58:09;20.27;;;7.53;;
67839;SDS011;54636;51.684;5.142;2023-07-31T02:00:35;25.35;;;7.97;;
67839;SDS011;54636;51.684;5.142;2023-07-31T02:03:00;23.30;;;8.10;;
67839;SDS011;54636;51.684;5.142;2023-07-31T02:05:25;21.48;;;6.75;;
67839;SDS011;54636;51.684;5.142;2023-07-31T02:07:51;20.77;;;6.85;;
67839;SDS011;54636;51.684;5.142;2023-07-31T02:10:16;18.38;;;6.70;;
67839;SDS011;54636;51.684;5.142;2023-07-31T02:12:42;22.48;;;7.18;;
67839;SDS011;54636;51.684;5.142;2023-07-31T02:15:07;19.33;;;6.72;;
67839;SDS011;54636;51.684;5.142;2023-07-31T02:17:32;20.98;;;6.68;;
67839;SDS011;54636;51.684;5.142;2023-07-31T02:19:58;17.30;;;6.18;;
67839;SDS011;54636;51.684;5.142;2023-07-31T02:22:23;17.50;;;6.68;;
67839;SDS011;54636;51.684;5.142;2023-07-31T02:24:49;18.73;;;7.05;;
67839;SDS011;54636;51.684;5.142;2023-07-31T02:27:14;24.35;;;6.75;;
67839;SDS011;54636;51.684;5.142;2023-07-31T02:29:39;21.40;;;7.13;;
67839;SDS011;54636;51.684;5.142;2023-07-31T02:32:05;23.60;;;6.65;;
67839;SDS011;54636;51.684;5.142;2023-07-31T02:34:31;19.70;;;6.68;;
67839;SDS011;54636;51.684;5.142;2023-07-31T02:36:56;18.27;;;7.30;;
67839;SDS011;54636;51.684;5.142;2023-07-31T02:39:21;19.48;;;6.55;;
67839;SDS011;54636;51.684;5.142;2023-07-31T02:41:47;22.23;;;6.30;;
67839;SDS011;54636;51.684;5.142;2023-07-31T02:44:12;20.77;;;6.72;;
67839;SDS011;54636;51.684;5.142;2023-07-31T02:46:39;17.80;;;6.53;;
67839;SDS011;54636;51.684;5.142;2023-07-31T02:49:05;21.17;;;6.90;;
67839;SDS011;54636;51.684;5.142;2023-07-31T02:51:30;14.73;;;6.00;;
67839;SDS011;54636;51.684;5.142;2023-07-31T02:53:55;14.60;;;5.90;;
67839;SDS011;54636;51.684;5.142;2023-07-31T02:56:21;14.32;;;5.70;;
67839;SDS011;54636;51.684;5.142;2023-07-31T02:58:46;17.85;;;6.32;;
67839;SDS011;54636;51.684;5.142;2023-07-31T03:01:12;18.05;;;6.63;;
67839;SDS011;54636;51.684;5.142;2023-07-31T03:03:37;14.38;;;5.95;;
67839;SDS011;54636;51.684;5.142;2023-07-31T03:06:03;25.02;;;6.88;;
67839;SDS011;54636;51.684;5.142;2023-07-31T03:08:28;18.67;;;7.30;;
67839;SDS011;54636;51.684;5.142;2023-07-31T03:10:54;25.02;;;7.68;;
67839;SDS011;54636;51.684;5.142;2023-07-31T03:13:19;20.35;;;6.05;;
67839;SDS011;54636;51.684;5.142;2023-07-31T03:15:44;23.73;;;6.97;;
67839;SDS011;54636;51.684;5.142;2023-07-31T03:18:10;17.05;;;6.15;;
67839;SDS011;54636;51.684;5.142;2023-07-31T03:20:35;15.73;;;6.50;;
67839;SDS011;54636;51.684;5.142;2023-07-31T03:23:01;17.50;;;6.70;;
67839;SDS011;54636;51.684;5.142;2023-07-31T03:25:26;16.50;;;6.93;;
67839;SDS011;54636;51.684;5.142;2023-07-31T03:27:51;15.60;;;6.45;;
67839;SDS011;54636;51.684;5.142;2023-07-31T03:30:17;15.77;;;6.75;;
67839;SDS011;54636;51.684;5.142;2023-07-31T03:32:42;14.40;;;5.80;;
67839;SDS011;54636;51.684;5.142;2023-07-31T03:35:08;21.08;;;6.68;;
67839;SDS011;54636;51.684;5.142;2023-07-31T03:37:33;19.05;;;5.65;;
67839;SDS011;54636;51.684;5.142;2023-07-31T03:39:58;17.73;;;6.88;;
67839;SDS011;54636;51.684;5.142;2023-07-31T03:42:24;14.95;;;5.68;;
67839;SDS011;54636;51.684;5.142;2023-07-31T03:44:49;14.27;;;6.72;;
67839;SDS011;54636;51.684;5.142;2023-07-31T03:47:15;15.18;;;6.55;;
67839;SDS011;54636;51.684;5.142;2023-07-31T03:49:40;18.77;;;5.30;;
67839;SDS011;54636;51.684;5.142;2023-07-31T03:52:06;19.88;;;5.93;;
67839;SDS011;54636;51.684;5.142;2023-07-31T03:54:31;20.33;;;6.18;;
67839;SDS011;54636;51.684;5.142;2023-07-31T03:56:57;18.15;;;6.38;;
67839;SDS011;54636;51.684;5.142;2023-07-31T03:59:22;21.33;;;6.93;;
67839;SDS011;54636;51.684;5.142;2023-07-31T04:01:47;18.02;;;6.78;;
67839;SDS011;54636;51.684;5.142;2023-07-31T04:04:13;13.27;;;5.70;;
67839;SDS011;54636;51.684;5.142;2023-07-31T04:06:38;15.27;;;5.80;;
67839;SDS011;54636;51.684;5.142;2023-07-31T04:09:04;15.88;;;5.95;;
67839;SDS011;54636;51.684;5.142;2023-07-31T04:11:29;15.32;;;5.57;;
67839;SDS011;54636;51.684;5.142;2023-07-31T04:13:54;20.27;;;6.22;;
67839;SDS011;54636;51.684;5.142;2023-07-31T04:16:20;18.10;;;6.13;;
67839;SDS011;54636;51.684;5.142;2023-07-31T04:18:45;15.68;;;5.65;;
67839;SDS011;54636;51.684;5.142;2023-07-31T04:21:10;14.18;;;5.50;;
67839;SDS011;54636;51.684;5.142;2023-07-31T04:23:36;19.20;;;5.85;;
67839;SDS011;54636;51.684;5.142;2023-07-31T04:26:02;15.52;;;5.47;;
67839;SDS011;54636;51.684;5.142;2023-07-31T04:28:27;14.80;;;4.93;;
67839;SDS011;54636;51.684;5.142;2023-07-31T04:30:53;19.20;;;5.45;;
67839;SDS011;54636;51.684;5.142;2023-07-31T04:33:18;17.80;;;5.78;;
67839;SDS011;54636;51.684;5.142;2023-07-31T04:35:51;13.40;;;5.20;;
67839;SDS011;54636;51.684;5.142;2023-07-31T04:38:18;13.82;;;5.60;;
67839;SDS011;54636;51.684;5.142;2023-07-31T04:40:44;19.98;;;6.43;;
67839;SDS011;54636;51.684;5.142;2023-07-31T04:43:10;11.20;;;5.05;;
67839;SDS011;54636;51.684;5.142;2023-07-31T04:45:35;23.10;;;6.15;;
67839;SDS011;54636;51.684;5.142;2023-07-31T04:48:01;20.92;;;6.35;;
67839;SDS011;54636;51.684;5.142;2023-07-31T04:50:26;16.10;;;5.68;;
67839;SDS011;54636;51.684;5.142;2023-07-31T04:52:52;11.15;;;5.80;;
67839;SDS011;54636;51.684;5.142;2023-07-31T04:55:17;18.77;;;5.43;;
67839;SDS011;54636;51.684;5.142;2023-07-31T04:57:42;12.70;;;5.63;;
67839;SDS011;54636;51.684;5.142;2023-07-31T05:00:08;20.52;;;5.63;;
67839;SDS011;54636;51.684;5.142;2023-07-31T05:02:34;15.50;;;5.90;;
67839;SDS011;54636;51.684;5.142;2023-07-31T05:04:59;19.13;;;5.97;;
67839;SDS011;54636;51.684;5.142;2023-07-31T05:07:24;13.68;;;5.55;;
67839;SDS011;54636;51.684;5.142;2023-07-31T05:09:50;20.08;;;6.63;;
67839;SDS011;54636;51.684;5.142;2023-07-31T05:12:15;11.77;;;4.82;;
67839;SDS011;54636;51.684;5.142;2023-07-31T05:14:40;17.33;;;5.43;;
67839;SDS011;54636;51.684;5.142;2023-07-31T05:17:06;15.57;;;5.25;;
67839;SDS011;54636;51.684;5.142;2023-07-31T05:19:31;15.48;;;5.45;;
67839;SDS011;54636;51.684;5.142;2023-07-31T05:21:56;19.33;;;5.85;;
67839;SDS011;54636;51.684;5.142;2023-07-31T05:24:22;13.82;;;5.90;;
67839;SDS011;54636;51.684;5.142;2023-07-31T05:26:47;14.68;;;6.30;;
67839;SDS011;54636;51.684;5.142;2023-07-31T05:29:13;12.48;;;4.90;;
67839;SDS011;54636;51.684;5.142;2023-07-31T05:31:38;15.77;;;5.40;;
67839;SDS011;54636;51.684;5.142;2023-07-31T05:34:04;10.65;;;4.65;;
67839;SDS011;54636;51.684;5.142;2023-07-31T05:36:29;14.05;;;4.95;;
67839;SDS011;54636;51.684;5.142;2023-07-31T05:38:54;12.05;;;5.53;;
67839;SDS011;54636;51.684;5.142;2023-07-31T05:41:20;13.85;;;6.22;;
67839;SDS011;54636;51.684;5.142;2023-07-31T05:43:45;10.65;;;4.70;;
67839;SDS011;54636;51.684;5.142;2023-07-31T05:46:11;13.93;;;5.55;;
67839;SDS011;54636;51.684;5.142;2023-07-31T05:48:37;18.08;;;4.60;;
67839;SDS011;54636;51.684;5.142;2023-07-31T05:51:02;9.55;;;4.82;;
67839;SDS011;54636;51.684;5.142;2023-07-31T05:53:28;8.88;;;4.40;;
67839;SDS011;54636;51.684;5.142;2023-07-31T05:55:54;12.18;;;4.57;;
67839;SDS011;54636;51.684;5.142;2023-07-31T05:58:19;7.78;;;4.07;;
67839;SDS011;54636;51.684;5.142;2023-07-31T06:00:44;7.00;;;3.95;;
67839;SDS011;54636;51.684;5.142;2023-07-31T06:03:10;12.25;;;4.47;;
67839;SDS011;54636;51.684;5.142;2023-07-31T06:05:35;13.15;;;4.00;;
67839;SDS011;54636;51.684;5.142;2023-07-31T06:08:01;5.72;;;3.58;;
67839;SDS011;54636;51.684;5.142;2023-07-31T06:10:26;6.45;;;3.30;;
67839;SDS011;54636;51.684;5.142;2023-07-31T06:12:53;7.65;;;4.00;;
67839;SDS011;54636;51.684;5.142;2023-07-31T06:15:19;6.72;;;3.28;;
67839;SDS011;54636;51.684;5.142;2023-07-31T06:17:44;5.32;;;3.00;;
67839;SDS011;54636;51.684;5.142;2023-07-31T06:20:10;4.38;;;3.22;;
67839;SDS011;54636;51.684;5.142;2023-07-31T06:22:36;4.10;;;3.15;;
67839;SDS011;54636;51.684;5.142;2023-07-31T06:25:01;3.65;;;2.30;;
67839;SDS011;54636;51.684;5.142;2023-07-31T06:27:26;3.63;;;2.72;;
67839;SDS011;54636;51.684;5.142;2023-07-31T06:29:52;6.32;;;2.58;;
67839;SDS011;54636;51.684;5.142;2023-07-31T06:32:17;4.75;;;2.25;;
67839;SDS011;54636;51.684;5.142;2023-07-31T06:34:43;4.57;;;2.58;;
67839;SDS011;54636;51.684;5.142;2023-07-31T06:37:08;3.13;;;2.60;;
67839;SDS011;54636;51.684;5.142;2023-07-31T06:39:34;4.22;;;2.40;;
67839;SDS011;54636;51.684;5.142;2023-07-31T06:41:59;3.05;;;2.30;;
67839;SDS011;54636;51.684;5.142;2023-07-31T06:44:24;4.00;;;2.50;;
67839;SDS011;54636;51.684;5.142;2023-07-31T06:46:50;2.88;;;2.55;;
67839;SDS011;54636;51.684;5.142;2023-07-31T06:49:16;3.65;;;2.85;;
67839;SDS011;54636;51.684;5.142;2023-07-31T06:51:41;2.45;;;2.25;;
67839;SDS011;54636;51.684;5.142;2023-07-31T06:54:07;7.60;;;2.42;;
67839;SDS011;54636;51.684;5.142;2023-07-31T06:56:33;3.28;;;2.65;;
67839;SDS011;54636;51.684;5.142;2023-07-31T06:58:58;4.07;;;3.05;;
67839;SDS011;54636;51.684;5.142;2023-07-31T07:01:24;3.78;;;2.90;;
67839;SDS011;54636;51.684;5.142;2023-07-31T07:03:49;5.88;;;2.63;;
67839;SDS011;54636;51.684;5.142;2023-07-31T07:06:16;2.30;;;2.03;;
67839;SDS011;54636;51.684;5.142;2023-07-31T07:08:42;1.65;;;1.55;;
67839;SDS011;54636;51.684;5.142;2023-07-31T07:11:07;2.60;;;2.20;;
67839;SDS011;54636;51.684;5.142;2023-07-31T07:13:33;2.55;;;1.98;;
67839;SDS011;54636;51.684;5.142;2023-07-31T07:15:58;2.40;;;2.25;;
67839;SDS011;54636;51.684;5.142;2023-07-31T07:18:24;5.95;;;1.85;;
67839;SDS011;54636;51.684;5.142;2023-07-31T07:20:50;2.10;;;2.00;;
67839;SDS011;54636;51.684;5.142;2023-07-31T07:23:16;2.35;;;2.00;;
67839;SDS011;54636;51.684;5.142;2023-07-31T07:25:42;2.42;;;2.22;;
67839;SDS011;54636;51.684;5.142;2023-07-31T07:28:08;2.08;;;1.98;;
67839;SDS011;54636;51.684;5.142;2023-07-31T07:30:33;2.70;;;2.10;;
67839;SDS011;54636;51.684;5.142;2023-07-31T07:33:00;3.70;;;2.25;;
67839;SDS011;54636;51.684;5.142;2023-07-31T07:35:25;2.95;;;2.28;;
67839;SDS011;54636;51.684;5.142;2023-07-31T07:37:51;1.98;;;1.70;;
67839;SDS011;54636;51.684;5.142;2023-07-31T07:40:16;3.60;;;2.28;;
67839;SDS011;54636;51.684;5.142;2023-07-31T07:42:41;2.47;;;2.28;;
67839;SDS011;54636;51.684;5.142;2023-07-31T07:45:07;2.30;;;2.10;;
67839;SDS011;54636;51.684;5.142;2023-07-31T07:47:33;3.80;;;2.17;;
67839;SDS011;54636;51.684;5.142;2023-07-31T07:49:58;2.08;;;1.88;;
67839;SDS011;54636;51.684;5.142;2023-07-31T07:52:24;2.38;;;2.17;;
67839;SDS011;54636;51.684;5.142;2023-07-31T07:54:49;4.18;;;2.17;;
67839;SDS011;54636;51.684;5.142;2023-07-31T07:57:15;3.13;;;2.83;;
67839;SDS011;54636;51.684;5.142;2023-07-31T07:59:40;3.92;;;2.97;;
67839;SDS011;54636;51.684;5.142;2023-07-31T08:02:07;4.75;;;2.75;;
67839;SDS011;54636;51.684;5.142;2023-07-31T08:04:32;3.47;;;2.65;;
67839;SDS011;54636;51.684;5.142;2023-07-31T08:06:57;2.75;;;2.50;;
67839;SDS011;54636;51.684;5.142;2023-07-31T08:09:23;3.92;;;2.78;;
67839;SDS011;54636;51.684;5.142;2023-07-31T08:11:48;3.63;;;2.75;;
67839;SDS011;54636;51.684;5.142;2023-07-31T08:14:13;3.20;;;3.00;;
67839;SDS011;54636;51.684;5.142;2023-07-31T08:16:39;2.78;;;2.53;;
67839;SDS011;54636;51.684;5.142;2023-07-31T08:19:04;5.75;;;3.00;;
67839;SDS011;54636;51.684;5.142;2023-07-31T08:21:30;5.80;;;3.35;;
67839;SDS011;54636;51.684;5.142;2023-07-31T08:23:56;3.60;;;3.30;;
67839;SDS011;54636;51.684;5.142;2023-07-31T08:26:21;8.77;;;3.35;;
67839;SDS011;54636;51.684;5.142;2023-07-31T08:28:47;3.85;;;3.50;;
67839;SDS011;54636;51.684;5.142;2023-07-31T08:31:12;6.75;;;3.92;;
67839;SDS011;54636;51.684;5.142;2023-07-31T08:33:38;6.43;;;3.72;;
67839;SDS011;54636;51.684;5.142;2023-07-31T08:36:05;4.18;;;3.83;;
67839;SDS011;54636;51.684;5.142;2023-07-31T08:38:31;5.05;;;4.30;;
67839;SDS011;54636;51.684;5.142;2023-07-31T08:40:57;4.68;;;4.13;;
67839;SDS011;54636;51.684;5.142;2023-07-31T08:43:22;9.10;;;3.97;;
67839;SDS011;54636;51.684;5.142;2023-07-31T08:45:51;6.78;;;4.43;;
67839;SDS011;54636;51.684;5.142;2023-07-31T08:48:17;6.63;;;4.30;;
67839;SDS011;54636;51.684;5.142;2023-07-31T08:50:44;5.65;;;4.65;;
67839;SDS011;54636;51.684;5.142;2023-07-31T08:53:10;8.20;;;4.30;;
67839;SDS011;54636;51.684;5.142;2023-07-31T08:55:36;9.10;;;4.78;;
67839;SDS011;54636;51.684;5.142;2023-07-31T08:58:03;8.07;;;4.93;;
67839;SDS011;54636;51.684;5.142;2023-07-31T09:00:29;10.27;;;4.97;;
67839;SDS011;54636;51.684;5.142;2023-07-31T09:03:01;5.30;;;3.80;;
67839;SDS011;54636;51.684;5.142;2023-07-31T09:05:29;9.95;;;5.05;;
67839;SDS011;54636;51.684;5.142;2023-07-31T09:07:56;5.75;;;5.00;;
67839;SDS011;54636;51.684;5.142;2023-07-31T09:10:22;4.30;;;3.95;;
67839;SDS011;54636;51.684;5.142;2023-07-31T09:12:51;5.78;;;3.92;;
67839;SDS011;54636;51.684;5.142;2023-07-31T09:15:17;7.10;;;4.00;;
67839;SDS011;54636;51.684;5.142;2023-07-31T09:17:42;6.05;;;4.00;;
67839;SDS011;54636;51.684;5.142;2023-07-31T09:22:44;7.65;;;4.32;;
67839;SDS011;54636;51.684;5.142;2023-07-31T09:25:44;4.63;;;3.80;;
67839;SDS011;54636;51.684;5.142;2023-07-31T09:28:04;7.07;;;3.85;;
67839;SDS011;54636;51.684;5.142;2023-07-31T09:30:44;7.15;;;4.00;;
67839;SDS011;54636;51.684;5.142;2023-07-31T09:33:11;6.63;;;3.58;;
67839;SDS011;54636;51.684;5.142;2023-07-31T09:35:37;7.78;;;4.07;;
67839;SDS011;54636;51.684;5.142;2023-07-31T09:38:06;4.45;;;3.20;;
67839;SDS011;54636;51.684;5.142;2023-07-31T09:40:34;6.68;;;3.80;;
67839;SDS011;54636;51.684;5.142;2023-07-31T09:43:05;4.30;;;3.50;;
67839;SDS011;54636;51.684;5.142;2023-07-31T09:45:36;4.97;;;3.60;;
67839;SDS011;54636;51.684;5.142;2023-07-31T09:48:07;3.60;;;3.30;;
67839;SDS011;54636;51.684;5.142;2023-07-31T09:50:34;8.13;;;3.58;;
67839;SDS011;54636;51.684;5.142;2023-07-31T09:53:02;4.28;;;3.00;;
67839;SDS011;54636;51.684;5.142;2023-07-31T09:55:27;5.50;;;3.72;;
67839;SDS011;54636;51.684;5.142;2023-07-31T09:57:54;3.60;;;2.85;;
67839;SDS011;54636;51.684;5.142;2023-07-31T10:00:22;4.50;;;3.30;;
67839;SDS011;54636;51.684;5.142;2023-07-31T10:02:50;3.78;;;3.00;;
67839;SDS011;54636;51.684;5.142;2023-07-31T10:05:16;5.13;;;3.00;;
67839;SDS011;54636;51.684;5.142;2023-07-31T10:07:43;6.20;;;2.47;;
67839;SDS011;54636;51.684;5.142;2023-07-31T10:10:15;3.95;;;2.92;;
67839;SDS011;54636;51.684;5.142;2023-07-31T10:12:41;3.75;;;3.00;;
67839;SDS011;54636;51.684;5.142;2023-07-31T10:15:08;4.63;;;2.90;;
67839;SDS011;54636;51.684;5.142;2023-07-31T10:17:35;6.43;;;3.25;;
67839;SDS011;54636;51.684;5.142;2023-07-31T10:20:01;3.63;;;2.80;;
67839;SDS011;54636;51.684;5.142;2023-07-31T10:22:30;2.58;;;2.38;;
67839;SDS011;54636;51.684;5.142;2023-07-31T10:24:57;3.20;;;2.60;;
67839;SDS011;54636;51.684;5.142;2023-07-31T10:27:24;2.95;;;2.55;;
67839;SDS011;54636;51.684;5.142;2023-07-31T10:29:50;3.50;;;2.70;;
67839;SDS011;54636;51.684;5.142;2023-07-31T10:32:19;4.65;;;3.03;;
67839;SDS011;54636;51.684;5.142;2023-07-31T10:34:46;4.75;;;2.78;;
67839;SDS011;54636;51.684;5.142;2023-07-31T10:37:19;3.17;;;2.58;;
67839;SDS011;54636;51.684;5.142;2023-07-31T10:39:54;3.00;;;2.50;;
67839;SDS011;54636;51.684;5.142;2023-07-31T10:42:50;3.40;;;2.05;;
67839;SDS011;54636;51.684;5.142;2023-07-31T10:45:34;4.03;;;2.30;;
67839;SDS011;54636;51.684;5.142;2023-07-31T10:48:04;2.35;;;2.15;;
67839;SDS011;54636;51.684;5.142;2023-07-31T10:50:32;7.47;;;2.50;;
67839;SDS011;54636;51.684;5.142;2023-07-31T10:52:58;3.03;;;2.38;;
67839;SDS011;54636;51.684;5.142;2023-07-31T10:57:56;2.75;;;2.50;;
67839;SDS011;54636;51.684;5.142;2023-07-31T11:00:29;5.20;;;2.50;;
67839;SDS011;54636;51.684;5.142;2023-07-31T11:02:58;2.10;;;2.00;;
67839;SDS011;54636;51.684;5.142;2023-07-31T11:06:10;3.55;;;2.30;;
67839;SDS011;54636;51.684;5.142;2023-07-31T11:08:25;7.35;;;2.60;;
67839;SDS011;54636;51.684;5.142;2023-07-31T11:13:27;2.60;;;2.33;;
67839;SDS011;54636;51.684;5.142;2023-07-31T11:16:04;2.90;;;2.03;;
67839;SDS011;54636;51.684;5.142;2023-07-31T11:18:29;4.60;;;2.50;;
67839;SDS011;54636;51.684;5.142;2023-07-31T11:20:54;3.00;;;2.70;;
67839;SDS011;54636;51.684;5.142;2023-07-31T11:23:21;3.50;;;2.33;;
67839;SDS011;54636;51.684;5.142;2023-07-31T11:25:46;3.15;;;2.45;;
67839;SDS011;54636;51.684;5.142;2023-07-31T11:28:12;3.05;;;2.78;;
67839;SDS011;54636;51.684;5.142;2023-07-31T11:30:42;2.58;;;2.42;;
67839;SDS011;54636;51.684;5.142;2023-07-31T11:35:36;9.13;;;3.13;;
67839;SDS011;54636;51.684;5.142;2023-07-31T11:38:10;2.72;;;2.42;;
67839;SDS011;54636;51.684;5.142;2023-07-31T11:40:52;3.40;;;2.85;;
67839;SDS011;54636;51.684;5.142;2023-07-31T11:43:19;4.05;;;2.53;;
67839;SDS011;54636;51.684;5.142;2023-07-31T11:45:49;4.18;;;3.03;;
67839;SDS011;54636;51.684;5.142;2023-07-31T11:48:31;3.38;;;2.70;;
67839;SDS011;54636;51.684;5.142;2023-07-31T11:50:59;3.95;;;3.10;;
67839;SDS011;54636;51.684;5.142;2023-07-31T11:53:29;7.22;;;2.75;;
67839;SDS011;54636;51.684;5.142;2023-07-31T11:56:00;5.43;;;2.88;;
67839;SDS011;54636;51.684;5.142;2023-07-31T11:58:29;3.40;;;3.20;;
67839;SDS011;54636;51.684;5.142;2023-07-31T12:00:59;3.90;;;3.08;;
67839;SDS011;54636;51.684;5.142;2023-07-31T12:03:26;9.95;;;3.80;;
67839;SDS011;54636;51.684;5.142;2023-07-31T12:05:53;4.47;;;3.70;;
67839;SDS011;54636;51.684;5.142;2023-07-31T12:08:20;4.63;;;3.47;;
67839;SDS011;54636;51.684;5.142;2023-07-31T12:10:49;4.57;;;3.47;;
67839;SDS011;54636;51.684;5.142;2023-07-31T12:15:55;3.95;;;3.40;;
67839;SDS011;54636;51.684;5.142;2023-07-31T12:18:22;6.13;;;3.40;;
67839;SDS011;54636;51.684;5.142;2023-07-31T12:20:53;4.40;;;3.53;;
67839;SDS011;54636;51.684;5.142;2023-07-31T12:23:20;7.18;;;3.83;;
67839;SDS011;54636;51.684;5.142;2023-07-31T12:28:37;4.43;;;4.03;;
67839;SDS011;54636;51.684;5.142;2023-07-31T12:31:07;4.65;;;3.70;;
67839;SDS011;54636;51.684;5.142;2023-07-31T12:33:34;4.15;;;3.72;;
67839;SDS011;54636;51.684;5.142;2023-07-31T12:36:02;4.05;;;3.65;;
67839;SDS011;54636;51.684;5.142;2023-07-31T12:38:29;4.25;;;3.90;;
67839;SDS011;54636;51.684;5.142;2023-07-31T12:40:55;6.75;;;3.88;;
67839;SDS011;54636;51.684;5.142;2023-07-31T12:43:20;4.78;;;3.72;;
67839;SDS011;54636;51.684;5.142;2023-07-31T12:45:45;4.30;;;3.90;;
67839;SDS011;54636;51.684;5.142;2023-07-31T12:48:12;3.22;;;3.00;;
67839;SDS011;54636;51.684;5.142;2023-07-31T12:50:38;4.50;;;3.85;;
67839;SDS011;54636;51.684;5.142;2023-07-31T12:53:04;3.95;;;3.53;;
67839;SDS011;54636;51.684;5.142;2023-07-31T12:55:30;7.00;;;4.72;;
67839;SDS011;54636;51.684;5.142;2023-07-31T12:57:56;6.18;;;4.50;;
67839;SDS011;54636;51.684;5.142;2023-07-31T13:00:22;4.15;;;3.75;;
67839;SDS011;54636;51.684;5.142;2023-07-31T13:02:47;4.50;;;3.75;;
67839;SDS011;54636;51.684;5.142;2023-07-31T13:05:13;7.10;;;4.50;;
67839;SDS011;54636;51.684;5.142;2023-07-31T13:07:39;7.13;;;4.90;;
67839;SDS011;54636;51.684;5.142;2023-07-31T13:10:05;5.40;;;3.50;;
67839;SDS011;54636;51.684;5.142;2023-07-31T13:12:31;5.70;;;4.38;;
67839;SDS011;54636;51.684;5.142;2023-07-31T13:14:57;4.55;;;4.03;;
67839;SDS011;54636;51.684;5.142;2023-07-31T13:17:22;8.20;;;3.95;;
67839;SDS011;54636;51.684;5.142;2023-07-31T13:19:48;7.55;;;4.25;;
67839;SDS011;54636;51.684;5.142;2023-07-31T13:22:13;4.50;;;3.78;;
67839;SDS011;54636;51.684;5.142;2023-07-31T13:24:39;6.60;;;4.20;;
67839;SDS011;54636;51.684;5.142;2023-07-31T13:27:04;8.02;;;4.22;;
67839;SDS011;54636;51.684;5.142;2023-07-31T13:29:30;8.63;;;4.60;;
67839;SDS011;54636;51.684;5.142;2023-07-31T13:31:55;6.03;;;3.92;;
67839;SDS011;54636;51.684;5.142;2023-07-31T13:34:21;12.38;;;4.45;;
67839;SDS011;54636;51.684;5.142;2023-07-31T13:36:46;11.65;;;4.85;;
67839;SDS011;54636;51.684;5.142;2023-07-31T13:39:11;5.50;;;4.63;;
67839;SDS011;54636;51.684;5.142;2023-07-31T13:41:37;5.07;;;4.40;;
67839;SDS011;54636;51.684;5.142;2023-07-31T13:44:02;8.00;;;4.10;;
67839;SDS011;54636;51.684;5.142;2023-07-31T13:46:28;7.63;;;4.20;;
67839;SDS011;54636;51.684;5.142;2023-07-31T13:48:53;7.13;;;4.20;;
67839;SDS011;54636;51.684;5.142;2023-07-31T13:51:20;6.30;;;4.55;;
67839;SDS011;54636;51.684;5.142;2023-07-31T13:53:46;8.25;;;4.63;;
67839;SDS011;54636;51.684;5.142;2023-07-31T13:56:11;9.93;;;4.00;;
67839;SDS011;54636;51.684;5.142;2023-07-31T13:58:38;5.85;;;4.55;;
67839;SDS011;54636;51.684;5.142;2023-07-31T14:01:03;5.70;;;4.28;;
67839;SDS011;54636;51.684;5.142;2023-07-31T14:03:29;4.15;;;3.55;;
67839;SDS011;54636;51.684;5.142;2023-07-31T14:05:55;5.00;;;4.50;;
67839;SDS011;54636;51.684;5.142;2023-07-31T14:08:21;6.22;;;4.32;;
67839;SDS011;54636;51.684;5.142;2023-07-31T14:10:46;5.75;;;4.80;;
67839;SDS011;54636;51.684;5.142;2023-07-31T14:13:12;3.80;;;3.42;;
67839;SDS011;54636;51.684;5.142;2023-07-31T14:15:37;4.57;;;4.18;;
67839;SDS011;54636;51.684;5.142;2023-07-31T14:18:02;6.57;;;4.15;;
67839;SDS011;54636;51.684;5.142;2023-07-31T14:20:28;10.55;;;4.70;;
67839;SDS011;54636;51.684;5.142;2023-07-31T14:22:54;4.88;;;4.22;;
67839;SDS011;54636;51.684;5.142;2023-07-31T14:25:20;6.63;;;4.38;;
67839;SDS011;54636;51.684;5.142;2023-07-31T14:27:46;11.10;;;4.85;;
67839;SDS011;54636;51.684;5.142;2023-07-31T14:30:11;8.13;;;5.10;;
67839;SDS011;54636;51.684;5.142;2023-07-31T14:32:36;6.00;;;4.65;;
67839;SDS011;54636;51.684;5.142;2023-07-31T14:35:02;7.95;;;4.85;;
67839;SDS011;54636;51.684;5.142;2023-07-31T14:37:36;6.93;;;4.85;;
67839;SDS011;54636;51.684;5.142;2023-07-31T14:40:08;7.75;;;4.82;;
67839;SDS011;54636;51.684;5.142;2023-07-31T14:42:35;5.45;;;4.95;;
67839;SDS011;54636;51.684;5.142;2023-07-31T14:45:02;9.23;;;4.95;;
67839;SDS011;54636;51.684;5.142;2023-07-31T14:47:28;8.93;;;4.88;;
67839;SDS011;54636;51.684;5.142;2023-07-31T14:49:53;6.50;;;4.22;;
67839;SDS011;54636;51.684;5.142;2023-07-31T14:52:18;6.70;;;4.07;;
67839;SDS011;54636;51.684;5.142;2023-07-31T14:54:44;7.60;;;3.60;;
67839;SDS011;54636;51.684;5.142;2023-07-31T14:57:10;3.80;;;3.45;;
67839;SDS011;54636;51.684;5.142;2023-07-31T14:59:35;3.63;;;3.30;;